Time;durP1;ratioP1;P1;durP2;ratioP2;P2;SDS_P1;SDS_P2;PMS_P1;PMS_P2;Temp;Humidity;BMP_temperature;BMP_pressure;BME280_temperature;BME280_humidity;BME280_pressure;Samples;Min_cycle;Max_cycle;Signal;HPM_P1;HPM_P2
2022/01/01 00:01:15;;;;;;;53.30;13.35;;;12.50;99.90;;;;;;5033683;28;20447;-77
2022/01/01 00:03:41;;;;;;;50.97;12.45;;;12.50;99.90;;;;;;5033079;28;20095;-74
2022/01/01 00:06:06;;;;;;;44.15;13.82;;;12.50;99.90;;;;;;5015068;28;20036;-75
2022/01/01 00:08:32;;;;;;;55.40;14.48;;;12.50;99.90;;;;;;5032945;28;20025;-74
2022/01/01 00:10:57;;;;;;;53.47;14.65;;;12.50;99.90;;;;;;5033155;28;20037;-75
2022/01/01 00:13:23;;;;;;;61.15;16.67;;;12.50;99.90;;;;;;5033162;28;20116;-74
2022/01/01 00:15:48;;;;;;;70.60;24.45;;;12.50;99.90;;;;;;5032960;28;20077;-74
2022/01/01 00:18:16;;;;;;;62.25;20.52;;;12.50;99.90;;;;;;5032682;28;20021;-74
2022/01/01 00:20:41;;;;;;;61.17;20.92;;;12.50;99.90;;;;;;5014517;28;20064;-74
2022/01/01 00:23:07;;;;;;;69.00;20.50;;;12.50;99.90;;;;;;5033406;28;20060;-75
2022/01/01 00:25:32;;;;;;;91.43;49.63;;;12.50;99.90;;;;;;5032255;28;20411;-75
2022/01/01 00:27:58;;;;;;;50.38;16.67;;;12.50;99.90;;;;;;5016594;28;20021;-74
2022/01/01 00:30:24;;;;;;;57.80;17.15;;;12.50;99.90;;;;;;5014667;28;20037;-75
2022/01/01 00:32:49;;;;;;;53.92;16.77;;;12.50;99.90;;;;;;5032079;28;20029;-75
2022/01/01 00:35:15;;;;;;;51.00;13.95;;;12.50;99.90;;;;;;5032673;28;20100;-76
2022/01/01 00:37:40;;;;;;;43.45;12.57;;;12.50;99.90;;;;;;5032277;28;20018;-75
2022/01/01 00:40:06;;;;;;;50.85;12.63;;;12.50;99.90;;;;;;5014462;28;20541;-76
2022/01/01 00:42:32;;;;;;;47.90;13.10;;;12.50;99.90;;;;;;5032357;28;20029;-76
2022/01/01 00:44:58;;;;;;;49.95;12.45;;;12.50;99.90;;;;;;5015027;28;20509;-75
2022/01/01 00:47:23;;;;;;;48.30;13.98;;;12.50;99.90;;;;;;5032242;28;20394;-75
2022/01/01 00:49:49;;;;;;;52.45;12.57;;;12.50;99.90;;;;;;5032995;28;20099;-75
2022/01/01 00:52:14;;;;;;;53.75;13.25;;;12.50;99.90;;;;;;5032497;28;20025;-76
2022/01/01 00:54:41;;;;;;;43.78;12.13;;;12.50;99.90;;;;;;5032872;28;20391;-75
2022/01/01 00:57:07;;;;;;;39.30;10.70;;;12.40;99.90;;;;;;5032524;28;20025;-75
2022/01/01 00:59:32;;;;;;;46.10;11.65;;;12.40;99.90;;;;;;5032436;28;20434;-74
2022/01/01 01:01:59;;;;;;;37.58;9.88;;;12.40;99.90;;;;;;5032871;28;20566;-74
2022/01/01 01:04:25;;;;;;;46.95;11.02;;;12.40;99.90;;;;;;5032907;28;20026;-75
2022/01/01 01:06:51;;;;;;;49.47;11.07;;;12.40;99.90;;;;;;5032286;28;20021;-75
2022/01/01 01:09:17;;;;;;;46.10;10.50;;;12.40;99.90;;;;;;5014815;28;20036;-76
2022/01/01 01:11:46;;;;;;;33.97;10.57;;;12.40;99.90;;;;;;5032514;28;20094;-74
2022/01/01 01:14:19;;;;;;;51.63;15.40;;;12.40;99.90;;;;;;5033465;28;20108;-74
2022/01/01 01:16:46;;;;;;;41.55;10.80;;;12.40;99.90;;;;;;5032787;28;20021;-74
2022/01/01 01:19:12;;;;;;;42.42;10.55;;;12.50;99.90;;;;;;5034957;28;20105;-74
2022/01/01 01:21:37;;;;;;;45.63;11.88;;;12.50;99.90;;;;;;5019199;28;20057;-75
2022/01/01 01:24:03;;;;;;;48.38;14.07;;;12.40;99.90;;;;;;5035927;28;20029;-75
2022/01/01 01:26:29;;;;;;;54.88;15.13;;;12.40;99.90;;;;;;5031471;28;20057;-74
2022/01/01 01:28:56;;;;;;;66.10;14.80;;;12.40;99.90;;;;;;5014485;28;20026;-74
2022/01/01 01:31:24;;;;;;;41.45;11.07;;;12.40;99.90;;;;;;5031829;28;20498;-74
2022/01/01 01:33:50;;;;;;;54.25;12.77;;;12.40;99.90;;;;;;5031894;28;20022;-74
2022/01/01 01:36:15;;;;;;;40.20;11.05;;;12.40;99.90;;;;;;5013836;28;20068;-74
2022/01/01 01:38:41;;;;;;;41.92;12.27;;;12.50;99.90;;;;;;5031504;28;20033;-74
2022/01/01 01:41:08;;;;;;;38.65;12.20;;;12.40;99.90;;;;;;5032445;28;20104;-76
2022/01/01 01:43:34;;;;;;;39.70;11.63;;;12.40;99.90;;;;;;5032783;28;20033;-77
2022/01/01 01:46:05;;;;;;;53.05;12.00;;;12.40;99.90;;;;;;5036908;28;20091;-75
2022/01/01 01:48:36;;;;;;;56.80;14.15;;;12.40;99.90;;;;;;5037565;28;20017;-76
2022/01/01 01:51:03;;;;;;;47.08;12.85;;;12.40;99.90;;;;;;5041699;28;20033;-76
2022/01/01 01:53:29;;;;;;;41.22;11.93;;;12.40;99.90;;;;;;5045369;28;20022;-76
2022/01/01 01:55:55;;;;;;;42.95;13.73;;;12.40;99.90;;;;;;5038880;28;20371;-74
2022/01/01 01:58:22;;;;;;;44.17;12.95;;;12.50;99.90;;;;;;5017203;28;20064;-77
2022/01/01 02:01:08;;;;;;;46.30;14.20;;;12.40;99.90;;;;;;5035056;28;20246;-75
2022/01/01 02:03:33;;;;;;;55.67;13.55;;;12.40;99.90;;;;;;5040966;28;20029;-75
2022/01/01 02:05:58;;;;;;;41.72;12.95;;;12.30;99.90;;;;;;5047863;28;20040;-75
2022/01/01 02:08:24;;;;;;;57.60;14.73;;;12.40;99.90;;;;;;5040917;28;20072;-77
2022/01/01 02:10:53;;;;;;;44.80;13.45;;;12.40;99.90;;;;;;5034186;28;20036;-77
2022/01/01 02:13:31;;;;;;;48.88;14.95;;;12.30;99.90;;;;;;5034050;28;20029;-76
2022/01/01 02:18:22;;;;;;;51.20;15.07;;;12.30;99.90;;;;;;5034970;28;20021;-76
2022/01/01 02:20:51;;;;;;;50.92;13.68;;;12.30;99.90;;;;;;5016714;28;20033;-75
2022/01/01 02:23:22;;;;;;;57.67;15.63;;;12.30;99.90;;;;;;5034337;28;20060;-76
2022/01/01 02:25:52;;;;;;;56.63;14.52;;;12.30;99.90;;;;;;5033632;28;20055;-77
2022/01/01 02:28:19;;;;;;;43.83;13.93;;;12.30;99.90;;;;;;5034655;28;20049;-76
2022/01/01 02:30:44;;;;;;;56.92;14.10;;;12.30;99.90;;;;;;5033960;28;20116;-75
2022/01/01 02:33:10;;;;;;;51.85;15.20;;;12.40;99.90;;;;;;5033971;28;20068;-76
2022/01/01 02:35:36;;;;;;;41.42;13.15;;;12.50;99.90;;;;;;5034542;28;20030;-74
2022/01/01 02:38:01;;;;;;;52.17;13.45;;;12.40;99.90;;;;;;5037113;28;20411;-77
2022/01/01 02:40:27;;;;;;;61.33;14.50;;;12.60;99.90;;;;;;5017399;28;20029;-76
2022/01/01 02:42:54;;;;;;;54.22;14.13;;;12.40;99.90;;;;;;5034380;28;20390;-75
2022/01/01 02:45:20;;;;;;;51.75;15.02;;;12.40;99.90;;;;;;5033729;28;20539;-75
2022/01/01 02:47:46;;;;;;;66.13;15.57;;;12.40;99.90;;;;;;5016601;28;20126;-75
2022/01/01 02:50:12;;;;;;;59.33;15.98;;;12.40;99.90;;;;;;5033583;28;20470;-76
2022/01/01 02:52:38;;;;;;;56.38;15.98;;;12.30;99.90;;;;;;5033876;28;20163;-74
2022/01/01 02:55:06;;;;;;;59.38;16.95;;;12.30;99.90;;;;;;5033557;28;20418;-75
2022/01/01 02:57:32;;;;;;;63.58;17.33;;;12.30;99.90;;;;;;5015066;28;20025;-76
2022/01/01 02:59:57;;;;;;;47.38;16.23;;;12.30;99.90;;;;;;4978835;28;1077474;-77
2022/01/01 03:02:23;;;;;;;55.42;17.90;;;12.30;99.90;;;;;;5035385;28;20101;-76
2022/01/01 03:04:49;;;;;;;68.10;18.17;;;12.40;99.90;;;;;;5035581;28;20033;-75
2022/01/01 03:07:15;;;;;;;56.38;16.85;;;12.40;99.90;;;;;;5035822;28;20450;-75
2022/01/01 03:09:40;;;;;;;63.15;18.88;;;12.40;99.90;;;;;;5035865;28;20029;-76
2022/01/01 03:12:08;;;;;;;64.15;18.83;;;12.40;99.90;;;;;;5036313;28;20109;-77
2022/01/01 03:14:35;;;;;;;57.80;18.30;;;12.40;99.90;;;;;;5035915;28;20017;-76
2022/01/01 03:17:02;;;;;;;69.88;22.38;;;12.40;99.90;;;;;;5036221;28;20025;-75
2022/01/01 03:19:27;;;;;;;56.13;17.42;;;12.40;99.90;;;;;;5037733;28;20083;-77
2022/01/01 03:21:53;;;;;;;65.50;18.33;;;12.40;99.90;;;;;;5058432;28;20221;-78
2022/01/01 03:24:18;;;;;;;60.20;17.88;;;12.40;99.90;;;;;;5050629;28;20055;-75
2022/01/01 03:26:44;;;;;;;61.65;17.65;;;12.40;99.90;;;;;;5018170;28;20052;-75
2022/01/01 03:29:10;;;;;;;50.83;17.15;;;12.40;99.90;;;;;;5018331;28;20382;-76
2022/01/01 03:31:36;;;;;;;58.65;17.63;;;12.40;99.90;;;;;;5035851;28;20033;-76
2022/01/01 03:34:02;;;;;;;61.70;18.80;;;12.40;99.90;;;;;;5035491;28;20123;-76
2022/01/01 03:36:27;;;;;;;78.63;18.48;;;12.40;99.90;;;;;;5016757;28;20584;-74
2022/01/01 03:38:54;;;;;;;60.17;18.83;;;12.30;99.90;;;;;;5035076;28;20018;-76
2022/01/01 03:41:20;;;;;;;70.30;18.52;;;12.40;99.90;;;;;;5036763;28;20033;-76
2022/01/01 03:43:45;;;;;;;53.65;16.90;;;12.30;99.90;;;;;;5035665;28;20021;-76
2022/01/01 03:46:11;;;;;;;67.15;17.95;;;12.30;99.90;;;;;;5036222;28;20056;-76
2022/01/01 03:48:37;;;;;;;72.65;19.80;;;12.30;99.90;;;;;;5042027;28;20108;-76
2022/01/01 03:51:02;;;;;;;64.65;18.30;;;12.30;99.90;;;;;;5025676;28;20028;-75
2022/01/01 03:53:28;;;;;;;67.88;19.45;;;12.30;99.90;;;;;;5042987;28;20025;-75
2022/01/01 03:55:54;;;;;;;68.07;18.58;;;12.30;99.90;;;;;;5039563;28;20045;-78
2022/01/01 03:58:19;;;;;;;67.00;18.55;;;12.40;99.90;;;;;;5039810;28;20022;-78
2022/01/01 04:00:45;;;;;;;58.58;18.45;;;12.40;99.90;;;;;;5056755;28;20047;-77
2022/01/01 04:03:13;;;;;;;66.55;18.02;;;12.40;99.90;;;;;;5038563;28;20111;-75
2022/01/01 04:05:40;;;;;;;61.83;18.00;;;12.30;99.90;;;;;;5034362;28;20025;-75
2022/01/01 04:08:07;;;;;;;55.58;17.90;;;12.30;99.90;;;;;;5033677;28;20040;-76
2022/01/01 04:10:33;;;;;;;61.08;19.42;;;12.40;99.90;;;;;;5034276;28;20151;-75
2022/01/01 04:13:00;;;;;;;55.80;17.92;;;12.40;99.90;;;;;;5034282;28;20022;-75
2022/01/01 04:15:26;;;;;;;56.08;19.10;;;12.40;99.90;;;;;;5034031;28;20032;-74
2022/01/01 04:17:57;;;;;;;64.78;18.38;;;12.40;99.90;;;;;;5033850;28;20032;-76
2022/01/01 04:20:23;;;;;;;49.13;16.95;;;12.30;99.90;;;;;;5034201;28;20056;-75
2022/01/01 04:22:49;;;;;;;70.18;19.45;;;12.30;99.90;;;;;;5034326;28;20422;-75
2022/01/01 04:25:15;;;;;;;47.60;18.45;;;12.30;99.90;;;;;;5044551;28;20088;-79
2022/01/01 04:27:40;;;;;;;78.15;20.20;;;12.40;99.90;;;;;;5044159;28;20482;-76
2022/01/01 04:30:06;;;;;;;67.22;21.02;;;12.40;99.90;;;;;;5033822;28;20033;-75
2022/01/01 04:32:32;;;;;;;61.38;20.20;;;12.40;99.90;;;;;;5033717;28;20026;-76
2022/01/01 04:34:57;;;;;;;68.57;23.45;;;12.40;99.90;;;;;;5033546;28;20034;-77
2022/01/01 04:37:23;;;;;;;60.63;20.45;;;12.40;99.90;;;;;;5033383;28;20029;-75
2022/01/01 04:39:52;;;;;;;71.50;21.60;;;12.40;99.90;;;;;;5033707;28;20017;-76
2022/01/01 04:42:18;;;;;;;70.95;22.38;;;12.40;99.90;;;;;;5033751;28;20473;-75
2022/01/01 04:44:44;;;;;;;73.28;23.85;;;12.30;99.90;;;;;;5033834;28;20025;-76
2022/01/01 04:47:09;;;;;;;75.35;22.73;;;12.40;99.90;;;;;;5033712;28;20032;-74
2022/01/01 04:49:35;;;;;;;65.88;23.00;;;12.40;99.90;;;;;;5034171;28;20033;-76
2022/01/01 04:52:01;;;;;;;80.72;24.73;;;12.40;99.90;;;;;;5034891;28;20108;-75
2022/01/01 04:54:27;;;;;;;71.88;24.05;;;12.40;99.90;;;;;;5033905;28;20064;-75
2022/01/01 04:56:52;;;;;;;72.90;23.02;;;12.40;99.90;;;;;;5033378;28;20438;-75
2022/01/01 04:59:18;;;;;;;70.03;23.33;;;12.40;99.90;;;;;;5033832;28;20044;-75
2022/01/01 05:01:44;;;;;;;76.85;25.45;;;12.40;99.90;;;;;;5033874;28;20048;-75
2022/01/01 05:04:10;;;;;;;73.82;24.63;;;12.40;99.90;;;;;;5016695;28;20350;-75
2022/01/01 05:06:36;;;;;;;73.78;27.38;;;12.40;99.90;;;;;;5039132;28;20030;-74
2022/01/01 05:09:02;;;;;;;71.80;26.48;;;12.40;99.90;;;;;;5048203;28;20084;-75
2022/01/01 05:11:28;;;;;;;73.03;25.33;;;12.40;99.90;;;;;;5036166;28;20077;-79
2022/01/01 05:13:54;;;;;;;71.22;25.45;;;12.40;99.90;;;;;;5034872;28;20029;-75
2022/01/01 05:16:20;;;;;;;82.43;26.58;;;12.40;99.90;;;;;;5035706;28;20026;-78
2022/01/01 05:18:47;;;;;;;96.35;28.27;;;12.40;99.90;;;;;;5047219;28;20121;-76
2022/01/01 05:21:13;;;;;;;90.22;27.90;;;12.40;99.90;;;;;;5050936;28;20032;-76
2022/01/01 05:23:39;;;;;;;93.55;28.48;;;12.40;99.90;;;;;;5016949;28;20026;-76
2022/01/01 05:26:04;;;;;;;89.05;28.30;;;12.40;99.90;;;;;;5016676;28;20037;-77
2022/01/01 05:28:30;;;;;;;82.90;27.48;;;12.30;99.90;;;;;;5016744;28;20022;-76
2022/01/01 05:30:56;;;;;;;91.43;28.23;;;12.30;99.90;;;;;;5017306;28;20056;-75
2022/01/01 05:33:22;;;;;;;76.25;27.30;;;12.30;99.90;;;;;;5017372;28;20534;-77
2022/01/01 05:35:47;;;;;;;79.30;27.83;;;12.40;99.90;;;;;;5017040;28;20034;-75
2022/01/01 05:38:13;;;;;;;71.72;26.40;;;12.40;99.90;;;;;;5016929;28;20026;-77
2022/01/01 05:40:38;;;;;;;96.15;28.65;;;12.40;99.90;;;;;;5016434;28;20129;-76
2022/01/01 05:43:06;;;;;;;76.63;28.10;;;12.40;99.90;;;;;;5016378;28;20026;-75
2022/01/01 05:45:32;;;;;;;87.93;29.33;;;12.30;99.90;;;;;;5016726;28;20030;-77
2022/01/01 05:47:57;;;;;;;87.63;27.83;;;12.30;99.90;;;;;;5017286;28;20107;-76
2022/01/01 05:50:23;;;;;;;92.18;28.73;;;12.40;99.90;;;;;;5017359;28;20104;-77
2022/01/01 05:52:49;;;;;;;81.70;28.98;;;12.30;99.90;;;;;;5017232;28;20037;-76
2022/01/01 05:55:15;;;;;;;96.25;29.23;;;12.30;99.90;;;;;;5018460;28;20278;-76
2022/01/01 05:57:40;;;;;;;92.00;29.30;;;12.30;99.90;;;;;;5001124;28;20169;-76
2022/01/01 06:00:07;;;;;;;85.22;29.05;;;12.30;99.90;;;;;;4999026;28;20116;-76
2022/01/01 06:02:40;;;;;;;90.85;29.85;;;12.30;99.90;;;;;;5017040;28;20030;-76
2022/01/01 06:05:06;;;;;;;94.60;28.38;;;12.30;99.90;;;;;;5017011;28;20030;-75
2022/01/01 06:07:31;;;;;;;80.78;27.67;;;12.30;99.90;;;;;;5017250;28;20037;-76
2022/01/01 06:09:57;;;;;;;89.13;28.85;;;12.30;99.90;;;;;;5016551;28;20029;-75
2022/01/01 06:12:22;;;;;;;98.20;28.20;;;12.20;99.90;;;;;;5016896;28;20022;-75
2022/01/01 06:14:48;;;;;;;87.38;27.90;;;12.20;99.90;;;;;;5016946;28;20030;-76
2022/01/01 06:17:13;;;;;;;98.45;28.95;;;12.30;99.90;;;;;;5016518;28;20034;-76
2022/01/01 06:19:39;;;;;;;74.50;25.88;;;12.20;99.90;;;;;;5016871;28;20037;-76
2022/01/01 06:22:04;;;;;;;88.05;26.75;;;12.30;99.90;;;;;;5017110;28;20033;-76
2022/01/01 06:24:30;;;;;;;92.88;27.70;;;12.30;99.90;;;;;;5000636;28;20093;-75
2022/01/01 06:26:55;;;;;;;88.45;27.02;;;12.30;99.90;;;;;;5021366;28;20109;-74
2022/01/01 06:29:21;;;;;;;88.97;26.70;;;12.20;99.90;;;;;;5017600;28;20499;-76
2022/01/01 06:31:46;;;;;;;88.40;26.08;;;12.30;99.90;;;;;;5016395;28;20034;-76
2022/01/01 06:34:12;;;;;;;79.85;25.75;;;12.30;99.90;;;;;;5025300;28;20030;-75
2022/01/01 06:36:37;;;;;;;98.32;27.42;;;12.30;99.90;;;;;;5022485;28;20044;-74
2022/01/01 06:39:04;;;;;;;80.40;24.50;;;12.30;99.90;;;;;;5016697;28;20044;-75
2022/01/01 06:41:29;;;;;;;74.95;26.67;;;12.30;99.90;;;;;;5000719;28;20402;-74
2022/01/01 06:43:55;;;;;;;78.55;27.20;;;12.30;99.90;;;;;;5000634;28;20026;-75
2022/01/01 06:46:20;;;;;;;87.22;27.33;;;12.30;99.90;;;;;;5017402;28;20553;-76
2022/01/01 06:48:46;;;;;;;85.25;27.30;;;12.30;99.90;;;;;;5016978;28;20025;-77
2022/01/01 06:51:12;;;;;;;86.97;27.08;;;12.20;99.90;;;;;;5035796;28;20153;-77
2022/01/01 06:53:37;;;;;;;86.10;25.55;;;12.30;99.90;;;;;;5022058;28;20181;-79
2022/01/01 06:56:05;;;;;;;74.30;25.92;;;12.20;99.90;;;;;;5038857;28;20026;-78
2022/01/01 06:58:32;;;;;;;84.97;24.95;;;12.20;99.90;;;;;;5038821;28;20014;-77
2022/01/01 07:00:58;;;;;;;80.78;26.05;;;12.20;99.90;;;;;;5027192;28;20211;-74
2022/01/01 07:03:23;;;;;;;95.85;27.23;;;12.20;99.90;;;;;;5016247;28;20026;-75
2022/01/01 07:05:49;;;;;;;80.85;25.42;;;12.20;99.90;;;;;;4998069;28;20430;-73
2022/01/01 07:08:15;;;;;;;72.47;23.88;;;12.20;99.90;;;;;;5015850;28;20026;-75
2022/01/01 07:10:44;;;;;;;89.32;25.90;;;12.20;99.90;;;;;;5015341;28;20034;-77
2022/01/01 07:13:16;;;;;;;88.75;25.10;;;12.20;99.90;;;;;;5015364;28;20021;-74
2022/01/01 07:15:42;;;;;;;83.15;25.30;;;12.20;99.90;;;;;;5015116;28;20026;-76
2022/01/01 07:18:08;;;;;;;89.57;26.25;;;12.20;99.90;;;;;;4997498;28;20183;-74
2022/01/01 07:20:33;;;;;;;89.05;24.42;;;12.20;99.90;;;;;;5015344;28;20108;-74
2022/01/01 07:22:59;;;;;;;76.93;23.98;;;12.20;99.90;;;;;;4998388;28;20026;-79
2022/01/01 07:25:25;;;;;;;78.65;24.00;;;12.30;99.90;;;;;;5015624;28;20030;-79
2022/01/01 07:27:51;;;;;;;87.65;23.38;;;12.30;99.90;;;;;;5004978;28;20021;-80
2022/01/01 07:30:17;;;;;;;90.38;25.38;;;12.20;99.90;;;;;;5021843;28;20097;-79
2022/01/01 07:32:46;;;;;;;88.53;25.13;;;12.20;99.90;;;;;;5006825;28;20030;-76
2022/01/01 07:35:20;;;;;;;98.55;25.13;;;12.20;99.90;;;;;;5035991;28;20038;-76
2022/01/01 07:37:46;;;;;;;88.05;27.48;;;12.20;99.90;;;;;;5034551;28;20055;-76
2022/01/01 07:40:13;;;;;;;93.55;25.52;;;12.20;99.90;;;;;;5016516;28;20494;-75
2022/01/01 07:42:40;;;;;;;91.40;25.80;;;12.20;99.90;;;;;;5015171;28;20034;-75
2022/01/01 07:45:06;;;;;;;89.75;24.92;;;12.20;99.90;;;;;;5015665;28;20026;-75
2022/01/01 07:47:32;;;;;;;96.32;26.48;;;12.20;99.90;;;;;;5015487;28;20084;-79
2022/01/01 07:49:58;;;;;;;88.28;24.80;;;12.10;99.90;;;;;;5015926;28;20029;-78
2022/01/01 07:52:24;;;;;;;83.63;24.65;;;12.20;99.90;;;;;;5016171;28;20045;-76
2022/01/01 07:54:49;;;;;;;92.00;25.73;;;12.20;99.90;;;;;;4997278;28;20022;-75
2022/01/01 07:57:15;;;;;;;89.82;25.13;;;12.20;99.90;;;;;;5015619;28;20025;-76
2022/01/01 07:59:40;;;;;;;83.80;26.90;;;12.30;99.90;;;;;;5014818;28;20042;-74
2022/01/01 08:02:06;;;;;;;90.22;25.70;;;12.20;99.90;;;;;;5015133;28;20026;-77
2022/01/01 08:04:32;;;;;;;102.80;26.90;;;12.20;99.90;;;;;;5016630;28;20088;-77
2022/01/01 08:06:57;;;;;;;93.97;27.30;;;12.30;99.90;;;;;;5016593;28;20134;-76
2022/01/01 08:09:23;;;;;;;97.38;25.50;;;12.20;99.90;;;;;;5015318;28;20078;-76
2022/01/01 08:11:50;;;;;;;81.57;25.55;;;12.30;99.90;;;;;;5015381;28;20029;-76
2022/01/01 08:14:16;;;;;;;90.65;27.88;;;12.20;99.90;;;;;;5015011;28;20101;-75
2022/01/01 08:17:01;;;;;;;101.78;27.40;;;12.30;99.90;;;;;;5020629;28;20049;-75
2022/01/01 08:19:28;;;;;;;81.32;27.45;;;12.30;99.90;;;;;;5037082;28;20022;-77
2022/01/01 08:21:54;;;;;;;88.90;26.77;;;12.40;99.90;;;;;;5038485;28;20013;-77
2022/01/01 08:24:21;;;;;;;103.13;28.67;;;12.30;99.90;;;;;;5038915;28;20014;-77
2022/01/01 08:26:46;;;;;;;100.03;30.08;;;12.40;99.90;;;;;;5005203;28;20117;-75
2022/01/01 08:29:12;;;;;;;91.35;28.95;;;12.40;99.90;;;;;;5016051;28;20045;-76
2022/01/01 08:31:38;;;;;;;105.78;29.90;;;12.40;99.90;;;;;;5015221;28;20026;-75
2022/01/01 08:34:04;;;;;;;97.45;29.98;;;12.40;99.90;;;;;;5015872;28;20522;-75
2022/01/01 08:36:29;;;;;;;117.03;32.70;;;12.40;99.90;;;;;;5016712;28;20022;-74
2022/01/01 08:38:55;;;;;;;99.43;30.88;;;12.40;99.90;;;;;;5014121;28;20088;-75
2022/01/01 08:41:20;;;;;;;108.45;32.03;;;12.40;99.90;;;;;;5014360;28;20501;-74
2022/01/01 08:43:46;;;;;;;95.25;30.73;;;12.40;99.90;;;;;;5014703;28;20387;-74
2022/01/01 08:46:12;;;;;;;98.45;31.65;;;12.40;99.90;;;;;;5015096;28;20034;-74
2022/01/01 08:48:38;;;;;;;98.85;29.77;;;12.40;99.90;;;;;;5014307;28;20034;-74
2022/01/01 08:51:18;;;;;;;95.57;30.30;;;12.40;99.90;;;;;;5014527;28;20026;-77
2022/01/01 08:53:44;;;;;;;102.22;30.70;;;12.30;99.90;;;;;;5014296;28;20026;-77
2022/01/01 08:56:10;;;;;;;104.03;31.70;;;12.40;99.90;;;;;;4996617;28;20018;-74
2022/01/01 08:58:36;;;;;;;97.32;32.40;;;12.40;99.90;;;;;;5014547;28;20022;-75
2022/01/01 09:01:03;;;;;;;96.10;29.90;;;12.40;99.90;;;;;;4997608;28;20085;-76
2022/01/01 09:03:29;;;;;;;103.07;32.45;;;12.40;99.90;;;;;;5014915;28;20038;-77
2022/01/01 09:05:54;;;;;;;109.25;32.40;;;12.40;99.90;;;;;;5014455;28;20114;-75
2022/01/01 09:08:20;;;;;;;99.85;30.70;;;12.40;99.90;;;;;;5015165;28;20049;-79
2022/01/01 09:10:45;;;;;;;101.68;31.60;;;12.40;99.90;;;;;;5014667;28;20084;-73
2022/01/01 09:13:11;;;;;;;119.68;32.63;;;12.40;99.90;;;;;;5013827;28;20106;-75
2022/01/01 09:15:36;;;;;;;106.18;31.77;;;12.50;99.90;;;;;;5014548;28;20101;-79
2022/01/01 09:18:02;;;;;;;103.15;32.25;;;12.50;99.90;;;;;;5014614;28;20026;-75
2022/01/01 09:20:28;;;;;;;109.70;31.67;;;12.60;99.90;;;;;;5017437;28;20044;-75
2022/01/01 09:22:54;;;;;;;94.93;30.30;;;12.60;99.90;;;;;;5034116;28;20057;-75
2022/01/01 09:25:19;;;;;;;108.13;32.45;;;12.60;99.90;;;;;;5033016;28;20029;-77
2022/01/01 09:27:46;;;;;;;106.03;32.85;;;12.70;99.90;;;;;;5033240;28;20029;-75
2022/01/01 09:30:11;;;;;;;94.50;30.73;;;12.70;99.90;;;;;;5033408;28;20512;-76
2022/01/01 09:32:38;;;;;;;92.90;30.85;;;12.70;99.90;;;;;;5033227;28;20027;-76
2022/01/01 09:35:04;;;;;;;101.78;32.92;;;12.70;99.90;;;;;;5033367;28;20492;-76
2022/01/01 09:37:32;;;;;;;113.10;35.42;;;12.70;99.90;;;;;;5033330;28;20429;-76
2022/01/01 09:39:58;;;;;;;97.82;33.08;;;12.80;99.90;;;;;;5033420;28;20049;-76
2022/01/01 09:42:23;;;;;;;105.05;34.10;;;12.80;99.90;;;;;;5033924;28;20459;-77
2022/01/01 09:44:51;;;;;;;109.65;34.92;;;12.70;99.90;;;;;;5034532;28;20071;-77
2022/01/01 09:47:17;;;;;;;106.78;34.00;;;12.70;99.90;;;;;;5016108;28;20453;-77
2022/01/01 09:49:43;;;;;;;111.85;35.83;;;12.70;99.90;;;;;;5034382;28;20025;-77
2022/01/01 09:52:09;;;;;;;124.57;37.65;;;12.70;99.90;;;;;;5017571;28;20034;-79
2022/01/01 09:54:35;;;;;;;126.28;38.95;;;12.70;99.90;;;;;;5019685;28;20044;-75
2022/01/01 09:57:02;;;;;;;137.13;39.30;;;12.70;99.90;;;;;;5039064;28;20538;-80
2022/01/01 09:59:28;;;;;;;138.98;42.38;;;12.70;99.90;;;;;;5035563;28;20176;-76
2022/01/01 10:01:53;;;;;;;118.68;41.10;;;12.70;99.90;;;;;;5036375;28;20060;-75
2022/01/01 10:04:19;;;;;;;118.32;39.78;;;12.70;99.90;;;;;;5036489;28;20025;-76
2022/01/01 10:07:03;;;;;;;145.68;45.35;;;12.70;99.90;;;;;;5036740;28;20025;-77
2022/01/01 10:09:36;;;;;;;149.30;45.77;;;12.80;99.90;;;;;;5038429;28;20065;-75
2022/01/01 10:12:06;;;;;;;138.70;46.75;;;12.70;99.90;;;;;;5039213;28;20280;-76
2022/01/01 10:14:43;;;;;;;154.45;48.28;;;12.80;99.90;;;;;;5037852;28;20056;-75
2022/01/01 10:17:23;;;;;;;151.90;50.78;;;12.80;99.90;;;;;;5037366;28;20021;-76
2022/01/01 10:19:50;;;;;;;154.88;51.28;;;12.70;99.90;;;;;;5037862;28;20026;-75
2022/01/01 10:22:21;;;;;;;165.00;53.92;;;12.80;99.90;;;;;;5038148;28;20025;-75
2022/01/01 10:27:46;;;;;;;160.68;55.90;;;12.70;99.90;;;;;;5049559;28;20032;-74
2022/01/01 10:30:32;;;;;;;160.20;56.92;;;12.70;99.90;;;;;;5035079;28;20026;-73
2022/01/01 10:33:12;;;;;;;164.48;57.00;;;12.70;99.90;;;;;;5036667;28;20040;-74
2022/01/01 10:35:45;;;;;;;153.90;56.97;;;12.80;99.90;;;;;;5048199;28;20036;-74
2022/01/01 10:38:22;;;;;;;182.15;61.58;;;12.70;99.90;;;;;;5032675;28;20017;-73
2022/01/01 10:40:56;;;;;;;150.25;57.75;;;12.70;99.90;;;;;;5052091;28;20082;-73
2022/01/01 10:43:37;;;;;;;161.73;58.35;;;12.70;99.90;;;;;;5034028;28;20052;-74
2022/01/01 10:46:04;;;;;;;177.30;62.90;;;12.70;99.90;;;;;;5046652;28;20073;-76
2022/01/01 10:51:02;;;;;;;161.77;62.13;;;12.70;99.90;;;;;;5045689;28;20025;-77
2022/01/01 10:53:29;;;;;;;162.77;60.05;;;12.70;99.90;;;;;;5022505;28;20111;-77
2022/01/01 10:55:57;;;;;;;151.50;58.78;;;12.70;99.90;;;;;;5020418;28;20032;-77
2022/01/01 10:58:26;;;;;;;162.90;58.17;;;12.70;99.90;;;;;;5036753;28;20040;-77
2022/01/01 11:00:57;;;;;;;144.27;55.25;;;12.70;99.90;;;;;;5018732;28;20045;-76
2022/01/01 11:03:24;;;;;;;126.53;53.38;;;12.70;99.90;;;;;;5037106;28;20493;-77
2022/01/01 11:06:05;;;;;;;139.40;54.20;;;12.70;99.90;;;;;;5019725;28;20117;-77
2022/01/01 11:08:33;;;;;;;148.00;56.13;;;12.70;99.90;;;;;;5020313;28;20087;-79
2022/01/01 11:10:59;;;;;;;149.52;55.25;;;12.70;99.90;;;;;;5038971;28;20033;-77
2022/01/01 11:13:26;;;;;;;140.10;52.08;;;12.70;99.90;;;;;;5037848;28;20017;-75
2022/01/01 11:15:52;;;;;;;145.18;52.10;;;12.70;99.90;;;;;;5036039;28;20021;-76
2022/01/01 11:18:18;;;;;;;133.50;51.65;;;12.70;99.90;;;;;;5035986;28;20026;-77
2022/01/01 11:20:44;;;;;;;132.40;50.03;;;12.70;99.90;;;;;;5037190;28;20030;-76
2022/01/01 11:23:12;;;;;;;123.35;47.20;;;12.70;99.90;;;;;;5037032;28;20032;-76
2022/01/01 11:25:39;;;;;;;117.13;45.95;;;12.70;99.90;;;;;;5036194;28;20033;-76
2022/01/01 11:28:10;;;;;;;118.70;45.63;;;12.80;99.90;;;;;;5035911;28;20083;-77
2022/01/01 11:30:38;;;;;;;99.60;42.55;;;12.80;99.90;;;;;;5035556;28;20434;-76
2022/01/01 11:33:15;;;;;;;103.63;42.40;;;12.80;99.90;;;;;;5040060;28;20053;-75
2022/01/01 11:35:44;;;;;;;103.43;41.45;;;12.80;99.90;;;;;;5047186;28;20026;-75
2022/01/01 11:38:15;;;;;;;98.47;39.53;;;12.90;99.90;;;;;;5043835;28;20406;-75
2022/01/01 11:40:41;;;;;;;100.00;39.33;;;12.90;99.90;;;;;;5035519;28;20108;-75
2022/01/01 11:43:27;;;;;;;111.95;39.28;;;13.00;99.90;;;;;;5035168;28;20067;-76
2022/01/01 11:45:57;;;;;;;99.20;36.60;;;13.00;99.90;;;;;;5022230;28;20052;-79
2022/01/01 11:48:41;;;;;;;91.20;36.33;;;13.00;99.90;;;;;;5051357;28;20021;-76
2022/01/01 11:51:48;;;;;;;103.63;37.28;;;13.10;99.90;;;;;;5031402;28;20117;-77
2022/01/01 11:54:14;;;;;;;90.60;34.88;;;13.10;99.90;;;;;;5035372;28;20372;-76
2022/01/01 11:57:00;;;;;;;86.45;33.75;;;13.10;99.90;;;;;;5035012;28;20033;-76
2022/01/01 11:59:50;;;;;;;108.65;39.70;;;13.20;99.90;;;;;;5017573;28;20048;-77
2022/01/01 12:02:18;;;;;;;93.75;34.08;;;13.20;99.90;;;;;;5025493;28;20036;-77
2022/01/01 12:04:50;;;;;;;96.72;35.60;;;13.30;99.90;;;;;;5035671;28;20119;-77
2022/01/01 12:07:16;;;;;;;86.80;35.30;;;13.30;99.90;;;;;;5035821;28;20081;-76
2022/01/01 12:10:06;;;;;;;92.13;35.25;;;13.40;99.90;;;;;;5017605;28;20057;-76
2022/01/01 12:12:36;;;;;;;87.82;32.85;;;13.40;99.90;;;;;;5018534;28;20437;-76
2022/01/01 12:15:04;;;;;;;84.10;32.17;;;13.40;99.90;;;;;;5037162;28;20095;-77
2022/01/01 12:17:48;;;;;;;85.50;33.42;;;13.40;99.90;;;;;;5053507;28;20076;-74
2022/01/01 12:20:14;;;;;;;90.63;35.80;;;13.40;99.90;;;;;;5017919;28;20029;-76
2022/01/01 12:22:43;;;;;;;90.38;34.17;;;13.50;99.90;;;;;;5035478;28;20025;-76
2022/01/01 12:25:09;;;;;;;93.45;32.85;;;13.50;99.90;;;;;;5036940;28;20130;-75
2022/01/01 12:27:57;;;;;;;85.25;32.70;;;13.40;99.90;;;;;;5037245;28;20033;-74
2022/01/01 12:30:43;;;;;;;89.32;33.65;;;13.40;99.90;;;;;;5038892;28;20028;-76
2022/01/01 12:33:25;;;;;;;89.30;32.88;;;13.40;99.90;;;;;;5048861;28;20029;-75
2022/01/01 12:35:57;;;;;;;91.70;33.83;;;13.40;99.90;;;;;;5053139;28;20096;-76